Sherbrooke Airport Sherbrooke CA
ICAO: CYSC
IATA: YSC
Category: Medium
Scheduled Services: No

Elevation: 792 ft
TransAlt. 7900 ft.

Airport Communications:
MF:123.5
AWOS:126.25
MONTREAL CNTR:132.55
ATF/UNICOM:123.5

CYSC Zoom In..

Runways:

(A) RW 13 length 5901 ft width 150 ft
---- / hdg 136

(B) RW 31 length 5901 ft width 150 ft
---- / hdg 316

Location; CYSC
Day. 14 / Time. 14.00 Zulu
* Altimeter: 29.92
* Temperature: 23° c. 73.4°f.
* Wind from: 160° Speed 05 kn.
Dewpoint: 20° c.
Visibility: 9 Statute Miles.
Clouds: Overcast 6500 ft.

CYSC 141400Z AUTO 16005KT 100V170 9SM OVC065 23/20 A2992 RMK SLP133 DENSITY ALT 1900FT


Wind From 160°
Speed 05 kn.

 
 
jpsmedia.com for Web Design worldairports.se 2018   terms of use